CMI weather

University of Illinois Willard Airport
Champaign/Urbana, Illinois, United States

Public forecast

Using degrees Fahrenheit for public forecast. Weather courtesy of forecast.io.

Current aviation weather report (METAR) for University of Illinois Willard Airport

Retrieved 2019/11/18 13:40 UTC (0 seconds ago):

KCMI 181340Z 29008KT 2SM BR OVC006 03/02 A2984 RMK AO2 CIG 003V007 T00280022

Aviation forecast (TAF) for University of Illinois Willard Airport

Retrieved 2019/11/18 12:30 UTC (40 minutes ago):

TAF KCMI 181128Z 1812/1912 30007KT 3SM BR SCT004 OVC012 TEMPO 1812/1814 OVC004 FM182000 23004KT P6SM BKN018 FM190000 VRB04KT P6SM BKN035 PROB30 1908/1912 4SM -RA BKN020